Aviation Digital Data Service (ADDS)

Output produced by METARs form (0347 UTC 18 June 2019)
found at http://www.aviationweather.gov/metar/data/
 
METAR text: RPVP 180300Z 15004KT 9999 FEW017CB SCT080 32/25 Q1010 RMK A2983 CB E/SW/NNW
Conditions at: RPVP (PUERTO PRINCESA , PH) observed 0300 UTC 18 June 2019
Temperature: 32.0°C (90°F)
Dewpoint: 25.0°C (77°F) [RH = 67%]
Pressure (altimeter): 29.82 inches Hg (1010.0 mb)
Winds: from the SSE (150 degrees) at 5 MPH (4 knots; 2.1 m/s)
Visibility: 6 or more miles (10+ km)
Ceiling: at least 12,000 feet AGL
Clouds: few clouds at 1700 feet AGL
scattered clouds at 8000 feet AGL
Weather: no significant weather observed at this time

METAR text: RPVP 180200Z 15005KT 9999 FEW019 32/25 Q1010 RMK A2983
Conditions at: RPVP (PUERTO PRINCESA , PH) observed 0200 UTC 18 June 2019
Temperature: 32.0°C (90°F)
Dewpoint: 25.0°C (77°F) [RH = 67%]
Pressure (altimeter): 29.82 inches Hg (1010.0 mb)
Winds: from the SSE (150 degrees) at 6 MPH (5 knots; 2.6 m/s)
Visibility: 6 or more miles (10+ km)
Ceiling: at least 12,000 feet AGL
Clouds: few clouds at 1900 feet AGL
Weather: no significant weather observed at this time

METAR text: RPVP 180100Z 09004KT 9999 FEW019 31/24 Q1010 RMK A2983
Conditions at: RPVP (PUERTO PRINCESA , PH) observed 0100 UTC 18 June 2019
Temperature: 31.0°C (88°F)
Dewpoint: 24.0°C (75°F) [RH = 66%]
Pressure (altimeter): 29.82 inches Hg (1010.0 mb)
Winds: from the E (90 degrees) at 5 MPH (4 knots; 2.1 m/s)
Visibility: 6 or more miles (10+ km)
Ceiling: at least 12,000 feet AGL
Clouds: few clouds at 1900 feet AGL
Weather: no significant weather observed at this time

METAR text: RPVP 180000Z 25002KT 9999 FEW019 29/26 Q1010 RMK A2983
Conditions at: RPVP (PUERTO PRINCESA , PH) observed 0000 UTC 18 June 2019
Temperature: 29.0°C (84°F)
Dewpoint: 26.0°C (79°F) [RH = 84%]
Pressure (altimeter): 29.82 inches Hg (1010.0 mb)
Winds: from the WSW (250 degrees) at 2 MPH (2 knots; 1.0 m/s)
Visibility: 6 or more miles (10+ km)
Ceiling: at least 12,000 feet AGL
Clouds: few clouds at 1900 feet AGL
Weather: no significant weather observed at this time

METAR text: RPVP 172300Z 29004KT 9999 FEW019 27/25 Q1010 RMK A2983
Conditions at: RPVP (PUERTO PRINCESA , PH) observed 2300 UTC 17 June 2019
Temperature: 27.0°C (81°F)
Dewpoint: 25.0°C (77°F) [RH = 89%]
Pressure (altimeter): 29.82 inches Hg (1010.0 mb)
Winds: from the WNW (290 degrees) at 5 MPH (4 knots; 2.1 m/s)
Visibility: 6 or more miles (10+ km)
Ceiling: at least 12,000 feet AGL
Clouds: few clouds at 1900 feet AGL
Weather: no significant weather observed at this time

METAR text: RPVP 172200Z 27004KT 9999 FEW019 SCT080 26/24 Q1010 RMK A2983
Conditions at: RPVP (PUERTO PRINCESA , PH) observed 2200 UTC 17 June 2019
Temperature: 26.0°C (79°F)
Dewpoint: 24.0°C (75°F) [RH = 89%]
Pressure (altimeter): 29.82 inches Hg (1010.0 mb)
Winds: from the W (270 degrees) at 5 MPH (4 knots; 2.1 m/s)
Visibility: 6 or more miles (10+ km)
Ceiling: at least 12,000 feet AGL
Clouds: few clouds at 1900 feet AGL
scattered clouds at 8000 feet AGL
Weather: no significant weather observed at this time

METAR text: RPVP 172100Z 32004KT 9999 FEW019 BKN080 26/24 Q1010 RMK A2983
Conditions at: RPVP (PUERTO PRINCESA , PH) observed 2100 UTC 17 June 2019
Temperature: 26.0°C (79°F)
Dewpoint: 24.0°C (75°F) [RH = 89%]
Pressure (altimeter): 29.82 inches Hg (1010.0 mb)
Winds: from the NW (320 degrees) at 5 MPH (4 knots; 2.1 m/s)
Visibility: 6 or more miles (10+ km)
Ceiling: 8000 feet AGL
Clouds: few clouds at 1900 feet AGL
broken clouds at 8000 feet AGL
Weather: no significant weather observed at this time

METAR text: RPVP 171800Z 25004KT 9999 FEW019 SCT080 27/24 Q1010 RMK A2983
Conditions at: RPVP (PUERTO PRINCESA , PH) observed 1800 UTC 17 June 2019
Temperature: 27.0°C (81°F)
Dewpoint: 24.0°C (75°F) [RH = 84%]
Pressure (altimeter): 29.82 inches Hg (1010.0 mb)
Winds: from the WSW (250 degrees) at 5 MPH (4 knots; 2.1 m/s)
Visibility: 6 or more miles (10+ km)
Ceiling: at least 12,000 feet AGL
Clouds: few clouds at 1900 feet AGL
scattered clouds at 8000 feet AGL
Weather: no significant weather observed at this time

METAR text: RPVP 171500Z 24004KT 9999 FEW019 28/24 Q1011 RMK A2985
Conditions at: RPVP (PUERTO PRINCESA , PH) observed 1500 UTC 17 June 2019
Temperature: 28.0°C (82°F)
Dewpoint: 24.0°C (75°F) [RH = 79%]
Pressure (altimeter): 29.85 inches Hg (1011.0 mb)
Winds: from the WSW (240 degrees) at 5 MPH (4 knots; 2.1 m/s)
Visibility: 6 or more miles (10+ km)
Ceiling: at least 12,000 feet AGL
Clouds: few clouds at 1900 feet AGL
Weather: no significant weather observed at this time

METAR text: RPVP 171200Z 33002KT 9999 FEW019 SCT080 29/25 Q1011 RMK A2985
Conditions at: RPVP (PUERTO PRINCESA , PH) observed 1200 UTC 17 June 2019
Temperature: 29.0°C (84°F)
Dewpoint: 25.0°C (77°F) [RH = 79%]
Pressure (altimeter): 29.85 inches Hg (1011.0 mb)
Winds: from the NNW (330 degrees) at 2 MPH (2 knots; 1.0 m/s)
Visibility: 6 or more miles (10+ km)
Ceiling: at least 12,000 feet AGL
Clouds: few clouds at 1900 feet AGL
scattered clouds at 8000 feet AGL
Weather: no significant weather observed at this time

METAR text: RPVP 171100Z 25004KT 9999 FEW019 SCT240 29/24 Q1010 RMK A2983
Conditions at: RPVP (PUERTO PRINCESA , PH) observed 1100 UTC 17 June 2019
Temperature: 29.0°C (84°F)
Dewpoint: 24.0°C (75°F) [RH = 74%]
Pressure (altimeter): 29.82 inches Hg (1010.0 mb)
Winds: from the WSW (250 degrees) at 5 MPH (4 knots; 2.1 m/s)
Visibility: 6 or more miles (10+ km)
Ceiling: at least 12,000 feet AGL
Clouds: few clouds at 1900 feet AGL
scattered clouds at 24000 feet AGL
Weather: no significant weather observed at this time

METAR text: RPVP 170900Z 18002KT 9999 FEW017CB SCT080 31/25 Q1009 RMK A2980 CB SW, WNW
Conditions at: RPVP (PUERTO PRINCESA , PH) observed 0900 UTC 17 June 2019
Temperature: 31.0°C (88°F)
Dewpoint: 25.0°C (77°F) [RH = 71%]
Pressure (altimeter): 29.79 inches Hg (1009.0 mb)
Winds: from the S (180 degrees) at 2 MPH (2 knots; 1.0 m/s)
Visibility: 6 or more miles (10+ km)
Ceiling: at least 12,000 feet AGL
Clouds: few clouds at 1700 feet AGL
scattered clouds at 8000 feet AGL
Weather: no significant weather observed at this time

METAR text: RPVP 170800Z 18002KT 9999 FEW017CB SCT240 32/24 Q1009 RMK A2980 CB SW
Conditions at: RPVP (PUERTO PRINCESA , PH) observed 0800 UTC 17 June 2019
Temperature: 32.0°C (90°F)
Dewpoint: 24.0°C (75°F) [RH = 63%]
Pressure (altimeter): 29.79 inches Hg (1009.0 mb)
Winds: from the S (180 degrees) at 2 MPH (2 knots; 1.0 m/s)
Visibility: 6 or more miles (10+ km)
Ceiling: at least 12,000 feet AGL
Clouds: few clouds at 1700 feet AGL
scattered clouds at 24000 feet AGL
Weather: no significant weather observed at this time

METAR text: RPVP 170700Z 27006KT 9999 FEW017CB SCT240 31/24 Q1009 RMK A2980 CB SW, NNW
Conditions at: RPVP (PUERTO PRINCESA , PH) observed 0700 UTC 17 June 2019
Temperature: 31.0°C (88°F)
Dewpoint: 24.0°C (75°F) [RH = 66%]
Pressure (altimeter): 29.79 inches Hg (1009.0 mb)
Winds: from the W (270 degrees) at 7 MPH (6 knots; 3.1 m/s)
Visibility: 6 or more miles (10+ km)
Ceiling: at least 12,000 feet AGL
Clouds: few clouds at 1700 feet AGL
scattered clouds at 24000 feet AGL
Weather: no significant weather observed at this time

METAR text: RPVP 170600Z 27008KT 9999 FEW017CB SCT240 30/24 Q1009 RMK A2980 CB N/E/W/NNW
Conditions at: RPVP (PUERTO PRINCESA , PH) observed 0600 UTC 17 June 2019
Temperature: 30.0°C (86°F)
Dewpoint: 24.0°C (75°F) [RH = 70%]
Pressure (altimeter): 29.79 inches Hg (1009.0 mb)
Winds: from the W (270 degrees) at 9 MPH (8 knots; 4.1 m/s)
Visibility: 6 or more miles (10+ km)
Ceiling: at least 12,000 feet AGL
Clouds: few clouds at 1700 feet AGL
scattered clouds at 24000 feet AGL
Weather: no significant weather observed at this time

METAR text: RPVP 170500Z 27006KT 9000 VCTS VCSH SCT017CB SCT080 32/26 Q1010 RMK A2983 CB E/SE/SSW-SW/W-NNW W/ VCSH
Conditions at: RPVP (PUERTO PRINCESA , PH) observed 0500 UTC 17 June 2019
Temperature: 32.0°C (90°F)
Dewpoint: 26.0°C (79°F) [RH = 71%]
Pressure (altimeter): 29.82 inches Hg (1010.0 mb)
Winds: from the W (270 degrees) at 7 MPH (6 knots; 3.1 m/s)
Visibility: 6 miles ( 9 km)
Ceiling: at least 12,000 feet AGL
Clouds: scattered clouds at 1700 feet AGL
scattered clouds at 8000 feet AGL
Weather: VCTS VCSH  (thunderstorm in vicinity, showers in vicinity)

METAR text: RPVP 170400Z 14006KT 9999 FEW017CB SCT240 32/26 Q1010 RMK A2983 CB SE/WNW/NW
Conditions at: RPVP (PUERTO PRINCESA , PH) observed 0400 UTC 17 June 2019
Temperature: 32.0°C (90°F)
Dewpoint: 26.0°C (79°F) [RH = 71%]
Pressure (altimeter): 29.82 inches Hg (1010.0 mb)
Winds: from the SE (140 degrees) at 7 MPH (6 knots; 3.1 m/s)
Visibility: 6 or more miles (10+ km)
Ceiling: at least 12,000 feet AGL
Clouds: few clouds at 1700 feet AGL
scattered clouds at 24000 feet AGL
Weather: no significant weather observed at this time

METAR text: RPVP 170300Z 12004KT 9999 FEW017CB SCT250 32/26 Q1010 RMK A2983 CB NE/SE/WNW/NW
Conditions at: RPVP (PUERTO PRINCESA , PH) observed 0300 UTC 17 June 2019
Temperature: 32.0°C (90°F)
Dewpoint: 26.0°C (79°F) [RH = 71%]
Pressure (altimeter): 29.82 inches Hg (1010.0 mb)
Winds: from the ESE (120 degrees) at 5 MPH (4 knots; 2.1 m/s)
Visibility: 6 or more miles (10+ km)
Ceiling: at least 12,000 feet AGL
Clouds: few clouds at 1700 feet AGL
scattered clouds at 25000 feet AGL
Weather: no significant weather observed at this time

METAR text: RPVP 170200Z 09004KT 9999 FEW017CB SCT240 32/25 Q1011 RMK A2985 CB SSW/NNW
Conditions at: RPVP (PUERTO PRINCESA , PH) observed 0200 UTC 17 June 2019
Temperature: 32.0°C (90°F)
Dewpoint: 25.0°C (77°F) [RH = 67%]
Pressure (altimeter): 29.85 inches Hg (1011.0 mb)
Winds: from the E (90 degrees) at 5 MPH (4 knots; 2.1 m/s)
Visibility: 6 or more miles (10+ km)
Ceiling: at least 12,000 feet AGL
Clouds: few clouds at 1700 feet AGL
scattered clouds at 24000 feet AGL
Weather: no significant weather observed at this time

METAR text: RPVP 170100Z 20002KT 9999 FEW019 SCT240 31/24 Q1010 RMK A2983
Conditions at: RPVP (PUERTO PRINCESA , PH) observed 0100 UTC 17 June 2019
Temperature: 31.0°C (88°F)
Dewpoint: 24.0°C (75°F) [RH = 66%]
Pressure (altimeter): 29.82 inches Hg (1010.0 mb)
Winds: from the SSW (200 degrees) at 2 MPH (2 knots; 1.0 m/s)
Visibility: 6 or more miles (10+ km)
Ceiling: at least 12,000 feet AGL
Clouds: few clouds at 1900 feet AGL
scattered clouds at 24000 feet AGL
Weather: no significant weather observed at this time

METAR text: RPVP 170000Z 36002KT 9999 FEW019 SCT240 29/25 Q1010 RMK A2983
Conditions at: RPVP (PUERTO PRINCESA , PH) observed 0000 UTC 17 June 2019
Temperature: 29.0°C (84°F)
Dewpoint: 25.0°C (77°F) [RH = 79%]
Pressure (altimeter): 29.82 inches Hg (1010.0 mb)
Winds: from the N (360 degrees) at 2 MPH (2 knots; 1.0 m/s)
Visibility: 6 or more miles (10+ km)
Ceiling: at least 12,000 feet AGL
Clouds: few clouds at 1900 feet AGL
scattered clouds at 24000 feet AGL
Weather: no significant weather observed at this time

METAR text: RPVP 162300Z 27006KT 9999 FEW019 BKN240 27/25 Q1010 RMK A2983
Conditions at: RPVP (PUERTO PRINCESA , PH) observed 2300 UTC 16 June 2019
Temperature: 27.0°C (81°F)
Dewpoint: 25.0°C (77°F) [RH = 89%]
Pressure (altimeter): 29.82 inches Hg (1010.0 mb)
Winds: from the W (270 degrees) at 7 MPH (6 knots; 3.1 m/s)
Visibility: 6 or more miles (10+ km)
Ceiling: 24000 feet AGL
Clouds: few clouds at 1900 feet AGL
broken clouds at 24000 feet AGL
Weather: no significant weather observed at this time

METAR text: RPVP 162200Z 27006KT 9999 FEW019 SCT080 26/24 Q1010 RMK A2983
Conditions at: RPVP (PUERTO PRINCESA , PH) observed 2200 UTC 16 June 2019
Temperature: 26.0°C (79°F)
Dewpoint: 24.0°C (75°F) [RH = 89%]
Pressure (altimeter): 29.82 inches Hg (1010.0 mb)
Winds: from the W (270 degrees) at 7 MPH (6 knots; 3.1 m/s)
Visibility: 6 or more miles (10+ km)
Ceiling: at least 12,000 feet AGL
Clouds: few clouds at 1900 feet AGL
scattered clouds at 8000 feet AGL
Weather: no significant weather observed at this time

METAR text: RPVP 162100Z 27004KT 9999 FEW019 SCT250 26/24 Q1009 RMK A2980
Conditions at: RPVP (PUERTO PRINCESA , PH) observed 2100 UTC 16 June 2019
Temperature: 26.0°C (79°F)
Dewpoint: 24.0°C (75°F) [RH = 89%]
Pressure (altimeter): 29.79 inches Hg (1009.0 mb)
Winds: from the W (270 degrees) at 5 MPH (4 knots; 2.1 m/s)
Visibility: 6 or more miles (10+ km)
Ceiling: at least 12,000 feet AGL
Clouds: few clouds at 1900 feet AGL
scattered clouds at 25000 feet AGL
Weather: no significant weather observed at this time

METAR text: RPVP 161800Z 18002KT 9999 FEW019 SCT250 27/24 Q1009 RMK A2980
Conditions at: RPVP (PUERTO PRINCESA , PH) observed 1800 UTC 16 June 2019
Temperature: 27.0°C (81°F)
Dewpoint: 24.0°C (75°F) [RH = 84%]
Pressure (altimeter): 29.79 inches Hg (1009.0 mb)
Winds: from the S (180 degrees) at 2 MPH (2 knots; 1.0 m/s)
Visibility: 6 or more miles (10+ km)
Ceiling: at least 12,000 feet AGL
Clouds: few clouds at 1900 feet AGL
scattered clouds at 25000 feet AGL
Weather: no significant weather observed at this time

Forecast for: RPVP (PUERTO PRINCESA , PH)
Text: TAF RPVP 172300Z 1800/1824 27005KT 9999 FEW019 SCT080 BKN240
Forecast period: 0000 UTC 18 June 2019 to 0000 UTC 19 June 2019
Forecast type: FROM: standard forecast or significant change
Winds: from the W (270 degrees) at 6 MPH (5 knots; 2.6 m/s)
Visibility: 6 or more miles 10+ km)
Ceiling: 24000 feet AGL
Clouds: few clouds at 1900 feet AGL
scattered clouds at 8000 feet AGL
broken clouds at 24000 feet AGL
Weather: no significant weather forecast for this period
Text: TEMPO 1802/1808 12007KT -SHRA FEW017CB FEW019 BKN080
Forecast period: 0200 to 0800 UTC 18 June 2019
Forecast type: TEMPORARY: The following changes expected for less than half the time period
Winds: from the ESE (120 degrees) at 8 MPH (7 knots; 3.6 m/s)
Visibility: missing
Ceiling: 8000 feet AGL
Clouds: few clouds at 1700 feet AGL
few clouds at 1900 feet AGL
broken clouds at 8000 feet AGL
Weather: -SHRA  (light rain showers)